Time;durP1;ratioP1;P1;durP2;ratioP2;P2;SDS_P1;SDS_P2;PMS_P1;PMS_P2;Temp;Humidity;BMP_temperature;BMP_pressure;BME280_temperature;BME280_humidity;BME280_pressure;Samples;Min_cycle;Max_cycle;Signal;HPM_P1;HPM_P2
2022/08/05 00:02:04;;;;;;;14.73;6.65;;;25.90;99.90;;;;;;5044755;28;20223;-68
2022/08/05 00:04:33;;;;;;;10.70;5.72;;;25.80;99.90;;;;;;5051984;28;20282;-69
2022/08/05 00:06:59;;;;;;;12.32;6.60;;;25.70;99.90;;;;;;5052497;28;20566;-68
2022/08/05 00:09:46;;;;;;;11.25;6.63;;;25.70;99.90;;;;;;5046923;28;20744;-69
2022/08/05 00:12:13;;;;;;;10.05;6.40;;;25.50;99.90;;;;;;5051773;28;20348;-69
2022/08/05 00:14:40;;;;;;;9.30;6.72;;;25.60;99.90;;;;;;5050884;28;20207;-68
2022/08/05 00:17:06;;;;;;;15.20;6.72;;;25.50;99.90;;;;;;5047510;28;20202;-68
2022/08/05 00:19:45;;;;;;;12.18;6.72;;;25.50;99.90;;;;;;5052379;28;20226;-68
2022/08/05 00:22:28;;;;;;;11.77;6.20;;;25.40;99.90;;;;;;5051812;28;20211;-68
2022/08/05 00:24:56;;;;;;;8.27;5.93;;;25.40;99.90;;;;;;5034528;28;20202;-68
2022/08/05 00:27:23;;;;;;;9.35;5.88;;;25.30;99.90;;;;;;5052190;28;20195;-68
2022/08/05 00:30:03;;;;;;;7.53;5.10;;;25.30;99.90;;;;;;5051876;28;20285;-67
2022/08/05 00:32:30;;;;;;;7.85;4.60;;;25.20;99.90;;;;;;5049347;28;20234;-69
2022/08/05 00:34:56;;;;;;;12.63;5.10;;;25.10;99.90;;;;;;5059416;28;20633;-70
2022/08/05 00:37:33;;;;;;;12.13;7.70;;;24.90;99.90;;;;;;5051996;28;20658;-68
2022/08/05 00:40:21;;;;;;;9.85;6.43;;;24.10;99.90;;;;;;5049537;28;20230;-69
2022/08/05 00:42:53;;;;;;;12.93;7.28;;;23.50;99.90;;;;;;5052324;28;20684;-68
2022/08/05 00:45:20;;;;;;;9.75;7.28;;;23.00;99.90;;;;;;5051310;28;20191;-69
2022/08/05 00:48:07;;;;;;;11.48;7.07;;;22.70;99.90;;;;;;5051460;28;20249;-68
2022/08/05 00:50:36;;;;;;;9.32;6.25;;;22.50;99.90;;;;;;5051506;28;20233;-68
2022/08/05 00:53:03;;;;;;;10.90;5.82;;;22.30;99.90;;;;;;5052063;28;20253;-69
2022/08/05 00:55:50;;;;;;;8.60;5.00;;;22.20;99.90;;;;;;5053005;28;20299;-69
2022/08/05 00:58:17;;;;;;;8.77;4.97;;;22.20;99.90;;;;;;5049407;28;20214;-69
2022/08/05 01:00:46;;;;;;;7.68;5.40;;;22.30;99.90;;;;;;5050548;28;20230;-68
2022/08/05 01:03:15;;;;;;;6.20;4.72;;;22.30;99.90;;;;;;5052413;28;20190;-69
2022/08/05 01:05:49;;;;;;;9.20;5.70;;;22.30;99.90;;;;;;5052634;28;20199;-69
2022/08/05 01:08:18;;;;;;;10.02;5.15;;;22.20;99.90;;;;;;5046759;28;20647;-69
2022/08/05 01:11:18;;;;;;;9.63;5.65;;;22.00;99.90;;;;;;5051489;28;20911;-69
2022/08/05 01:14:12;;;;;;;10.05;6.13;;;21.80;99.90;;;;;;5053132;28;20234;-69
2022/08/05 01:17:01;;;;;;;9.88;6.38;;;21.70;99.90;;;;;;5025830;28;20282;-68
2022/08/05 01:19:54;;;;;;;12.77;6.97;;;21.70;99.90;;;;;;5030737;28;20201;-68
2022/08/05 01:22:58;;;;;;;10.75;6.40;;;21.60;99.90;;;;;;5031267;28;20229;-68
2022/08/05 01:26:01;;;;;;;13.43;7.68;;;21.50;99.90;;;;;;5040360;28;20305;-68
2022/08/05 01:28:42;;;;;;;14.57;7.63;;;21.50;99.90;;;;;;5050478;28;20198;-68
2022/08/05 01:31:18;;;;;;;12.73;8.18;;;21.40;99.90;;;;;;5051841;28;20222;-68
2022/08/05 01:33:51;;;;;;;12.75;8.30;;;21.40;99.90;;;;;;5051766;28;20206;-68
2022/08/05 01:36:24;;;;;;;12.40;8.70;;;21.40;99.90;;;;;;5052859;28;20194;-69
2022/08/05 01:38:55;;;;;;;11.90;8.70;;;21.40;99.90;;;;;;5053953;28;20203;-69
2022/08/05 01:41:23;;;;;;;14.90;9.10;;;21.40;99.90;;;;;;5050664;28;20225;-69
2022/08/05 01:43:52;;;;;;;16.03;8.73;;;21.50;99.90;;;;;;5040731;28;20207;-69
2022/08/05 01:46:21;;;;;;;12.13;8.70;;;21.40;99.90;;;;;;5047939;28;20198;-69
2022/08/05 01:49:11;;;;;;;14.45;8.30;;;21.40;99.90;;;;;;5049496;28;20203;-69
2022/08/05 01:51:57;;;;;;;10.93;8.13;;;21.30;99.90;;;;;;5045319;28;20497;-68
2022/08/05 01:54:30;;;;;;;11.80;8.10;;;21.30;99.90;;;;;;5035117;28;20275;-68
2022/08/05 01:56:59;;;;;;;10.10;7.03;;;21.40;99.90;;;;;;5053328;28;20658;-69
2022/08/05 01:59:48;;;;;;;9.17;7.13;;;21.30;99.90;;;;;;5053474;28;20253;-68
2022/08/05 02:02:18;;;;;;;10.30;7.13;;;21.30;99.90;;;;;;5046204;28;20211;-69
2022/08/05 02:04:53;;;;;;;11.40;7.70;;;21.30;99.90;;;;;;5053083;28;20257;-68
2022/08/05 02:07:20;;;;;;;8.63;6.30;;;21.20;99.90;;;;;;5052602;28;20270;-69
2022/08/05 02:09:49;;;;;;;9.67;7.03;;;21.20;99.90;;;;;;5047838;28;20234;-69
2022/08/05 02:12:33;;;;;;;11.20;7.30;;;21.20;99.90;;;;;;5053179;28;20447;-69
2022/08/05 02:15:16;;;;;;;11.90;7.13;;;21.20;99.90;;;;;;5053076;28;20191;-69
2022/08/05 02:18:04;;;;;;;11.40;7.95;;;21.30;99.90;;;;;;5053276;28;20198;-69
2022/08/05 02:21:10;;;;;;;12.00;8.32;;;21.50;99.90;;;;;;5050944;28;20705;-69
2022/08/05 02:23:45;;;;;;;14.45;8.85;;;21.60;99.90;;;;;;5051962;28;20658;-69
2022/08/05 02:26:14;;;;;;;13.00;8.70;;;21.60;99.90;;;;;;5051936;28;20580;-69
2022/08/05 02:28:45;;;;;;;13.70;8.98;;;21.70;99.90;;;;;;5050357;28;20199;-69
2022/08/05 02:31:22;;;;;;;16.45;9.00;;;21.60;99.90;;;;;;5046059;28;20398;-69
2022/08/05 02:34:00;;;;;;;10.95;8.15;;;21.70;99.90;;;;;;5052654;28;20201;-69
2022/08/05 02:36:28;;;;;;;13.00;8.48;;;21.70;99.90;;;;;;5049940;28;20205;-69
2022/08/05 02:38:59;;;;;;;14.40;7.78;;;21.80;99.90;;;;;;5052486;28;20670;-69
2022/08/05 02:41:26;;;;;;;12.63;8.18;;;21.90;99.90;;;;;;5052334;28;20225;-69
2022/08/05 02:44:06;;;;;;;12.18;8.57;;;21.80;99.90;;;;;;5048894;28;20274;-69
2022/08/05 02:46:44;;;;;;;14.73;8.50;;;21.80;99.90;;;;;;5052354;28;20226;-69
2022/08/05 02:49:30;;;;;;;15.90;8.60;;;21.80;99.90;;;;;;5050244;28;20191;-69
2022/08/05 02:52:08;;;;;;;13.43;9.88;;;21.70;99.90;;;;;;5046304;28;20249;-69
2022/08/05 02:54:37;;;;;;;12.65;10.00;;;21.80;99.90;;;;;;5052474;28;20203;-69
2022/08/05 02:57:12;;;;;;;12.30;9.63;;;21.70;99.90;;;;;;5051853;28;20293;-69
2022/08/05 02:59:59;;;;;;;13.27;10.65;;;21.70;99.90;;;;;;5052107;28;20198;-69
2022/08/05 03:02:35;;;;;;;11.60;9.30;;;21.60;99.90;;;;;;5048780;28;20709;-69
2022/08/05 03:05:03;;;;;;;16.35;11.10;;;21.70;99.90;;;;;;5050522;28;20619;-69
2022/08/05 03:07:32;;;;;;;14.18;11.50;;;21.70;99.90;;;;;;5052030;28;20198;-69
2022/08/05 03:10:19;;;;;;;17.73;12.50;;;21.70;99.90;;;;;;5044765;28;20199;-69
2022/08/05 03:12:51;;;;;;;18.10;12.30;;;21.80;99.90;;;;;;5052194;28;20867;-69
2022/08/05 03:15:20;;;;;;;18.30;11.98;;;21.80;99.90;;;;;;5052201;28;20199;-69
2022/08/05 03:17:53;;;;;;;20.55;12.45;;;21.70;99.90;;;;;;5050924;28;20700;-69
2022/08/05 03:20:22;;;;;;;17.52;11.52;;;21.70;99.90;;;;;;5051898;28;20283;-69
2022/08/05 03:22:50;;;;;;;17.27;11.93;;;21.70;99.90;;;;;;5052025;28;20197;-69
2022/08/05 03:25:19;;;;;;;15.30;10.75;;;21.80;99.90;;;;;;5051296;28;20195;-69
2022/08/05 03:28:07;;;;;;;17.55;11.45;;;21.70;99.90;;;;;;5049467;28;20195;-69
2022/08/05 03:30:34;;;;;;;17.48;11.85;;;21.60;99.90;;;;;;5051231;28;20305;-69
2022/08/05 03:33:03;;;;;;;15.40;10.63;;;21.50;99.90;;;;;;5051486;28;20265;-69
2022/08/05 03:35:32;;;;;;;16.25;11.80;;;21.50;99.90;;;;;;5051575;28;20689;-70
2022/08/05 03:38:06;;;;;;;14.55;11.25;;;21.50;99.90;;;;;;5050284;28;20583;-69
2022/08/05 03:40:33;;;;;;;13.73;10.45;;;21.50;99.90;;;;;;5051200;28;20313;-69
2022/08/05 03:43:01;;;;;;;15.18;10.23;;;21.50;99.90;;;;;;5051431;28;20222;-69
2022/08/05 03:45:47;;;;;;;16.45;11.93;;;21.50;99.90;;;;;;5048959;28;20222;-69
2022/08/05 03:48:25;;;;;;;17.65;11.90;;;21.40;99.90;;;;;;5046657;28;20202;-69
2022/08/05 03:50:58;;;;;;;17.70;12.63;;;21.50;99.90;;;;;;5049907;28;20241;-69
2022/08/05 03:54:08;;;;;;;20.50;14.02;;;21.60;99.90;;;;;;5045802;28;20206;-69
2022/08/05 03:56:55;;;;;;;16.92;12.80;;;21.60;99.90;;;;;;5050600;28;20202;-69
2022/08/05 03:59:40;;;;;;;19.05;13.45;;;21.70;99.90;;;;;;5051158;28;20600;-69
2022/08/05 04:02:25;;;;;;;16.75;11.15;;;21.60;99.90;;;;;;5044675;28;20254;-69
2022/08/05 04:05:12;;;;;;;15.85;10.25;;;21.60;99.90;;;;;;5050590;28;20213;-69
2022/08/05 04:07:40;;;;;;;14.80;10.35;;;21.80;99.90;;;;;;5050987;28;20195;-69
2022/08/05 04:10:24;;;;;;;15.23;9.77;;;21.70;99.90;;;;;;5045351;28;20278;-69
2022/08/05 04:12:55;;;;;;;13.18;9.20;;;21.70;99.90;;;;;;5049469;28;20205;-69
2022/08/05 04:15:27;;;;;;;11.02;7.22;;;21.90;99.90;;;;;;5050950;28;20205;-69
2022/08/05 04:18:05;;;;;;;13.32;7.88;;;21.90;99.90;;;;;;5050241;28;20222;-69
2022/08/05 04:20:37;;;;;;;14.38;7.97;;;22.00;99.90;;;;;;5050258;28;20313;-69
2022/08/05 04:23:08;;;;;;;14.00;9.95;;;22.00;99.90;;;;;;5047974;28;20257;-69
2022/08/05 04:25:41;;;;;;;15.27;9.43;;;22.00;99.90;;;;;;5050520;28;20587;-69
2022/08/05 04:28:23;;;;;;;13.18;9.70;;;22.00;99.90;;;;;;5047743;28;20195;-69
2022/08/05 04:30:58;;;;;;;16.98;10.52;;;21.90;99.90;;;;;;5036821;28;20779;-68
2022/08/05 04:33:27;;;;;;;16.20;10.30;;;21.90;99.90;;;;;;5050500;28;20290;-69
2022/08/05 04:36:14;;;;;;;17.83;10.25;;;21.90;99.90;;;;;;5050797;28;20203;-69
2022/08/05 04:39:00;;;;;;;18.15;10.10;;;21.90;99.90;;;;;;5049510;28;20201;-69
2022/08/05 04:41:30;;;;;;;16.17;11.13;;;22.00;99.90;;;;;;5050141;28;20226;-69
2022/08/05 04:44:05;;;;;;;14.32;10.43;;;22.10;99.90;;;;;;5050773;28;20542;-68
2022/08/05 04:46:35;;;;;;;13.88;10.30;;;22.10;99.90;;;;;;5050320;28;20244;-68
2022/08/05 04:49:02;;;;;;;15.18;8.98;;;22.00;99.90;;;;;;5045689;28;20655;-68
2022/08/05 04:51:30;;;;;;;14.50;8.80;;;22.20;99.90;;;;;;5049789;28;20318;-68
2022/08/05 04:53:58;;;;;;;11.23;8.50;;;22.20;99.90;;;;;;5050126;28;20600;-69
2022/08/05 04:56:28;;;;;;;13.20;8.48;;;22.20;99.90;;;;;;5050371;28;20191;-69
2022/08/05 04:59:03;;;;;;;12.02;7.45;;;22.30;99.90;;;;;;5047021;28;20674;-70
2022/08/05 05:01:49;;;;;;;9.65;7.88;;;22.40;99.90;;;;;;5049992;28;20226;-69
2022/08/05 05:04:36;;;;;;;11.23;7.82;;;22.50;99.90;;;;;;5046831;28;20207;-69
2022/08/05 05:07:04;;;;;;;9.88;7.07;;;22.50;99.90;;;;;;5046587;28;20718;-69
2022/08/05 05:09:35;;;;;;;9.30;7.30;;;22.70;99.90;;;;;;5050125;28;20198;-69
2022/08/05 05:12:04;;;;;;;11.20;6.70;;;22.70;99.90;;;;;;5029809;28;20301;-69
2022/08/05 05:14:31;;;;;;;10.63;6.80;;;22.70;99.90;;;;;;5049815;28;20206;-69
2022/08/05 05:17:02;;;;;;;10.15;6.32;;;22.60;99.90;;;;;;5047445;28;20226;-69
2022/08/05 05:19:33;;;;;;;12.05;7.47;;;22.60;99.90;;;;;;5049772;28;20764;-70
2022/08/05 05:22:10;;;;;;;10.93;6.80;;;22.60;99.90;;;;;;5049517;28;20268;-70
2022/08/05 05:24:51;;;;;;;9.25;6.50;;;22.70;99.90;;;;;;5047806;28;20223;-69
2022/08/05 05:27:30;;;;;;;7.32;5.70;;;22.50;99.90;;;;;;5044782;28;20230;-69
2022/08/05 05:30:14;;;;;;;5.88;5.13;;;22.50;99.90;;;;;;5052892;28;20197;-69
2022/08/05 05:33:00;;;;;;;7.28;5.03;;;22.60;99.90;;;;;;5052323;28;20198;-70
2022/08/05 05:35:39;;;;;;;8.50;5.30;;;22.70;99.90;;;;;;5053743;28;20195;-70
2022/08/05 05:38:08;;;;;;;7.82;4.63;;;22.80;99.90;;;;;;5053702;28;20195;-70
2022/08/05 05:40:41;;;;;;;6.28;4.80;;;22.90;99.90;;;;;;5053437;28;20590;-70
2022/08/05 05:43:17;;;;;;;5.75;4.55;;;22.80;99.90;;;;;;5050510;28;20276;-70
2022/08/05 05:46:04;;;;;;;7.07;4.93;;;22.80;99.90;;;;;;5053563;28;20203;-69
2022/08/05 05:48:42;;;;;;;4.50;3.88;;;23.00;99.90;;;;;;5040466;28;20202;-70
2022/08/05 05:51:10;;;;;;;7.40;4.60;;;22.90;99.90;;;;;;5052826;28;20577;-70
2022/08/05 05:53:42;;;;;;;13.23;5.80;;;22.80;99.90;;;;;;5039598;28;20476;-69
2022/08/05 05:56:26;;;;;;;6.15;4.43;;;22.90;99.90;;;;;;5048128;28;20207;-69
2022/08/05 05:59:01;;;;;;;8.48;4.80;;;23.00;99.90;;;;;;5053294;28;20191;-70
2022/08/05 06:01:36;;;;;;;8.10;4.57;;;23.10;99.90;;;;;;5049468;28;20221;-70
2022/08/05 06:04:07;;;;;;;8.32;4.50;;;23.10;99.90;;;;;;5053480;28;20222;-70
2022/08/05 06:06:38;;;;;;;7.65;5.05;;;23.20;99.90;;;;;;5053180;28;20225;-71
2022/08/05 06:09:07;;;;;;;7.07;4.65;;;23.20;99.90;;;;;;5053090;28;20187;-70
2022/08/05 06:11:44;;;;;;;9.88;4.15;;;23.20;99.90;;;;;;5050966;28;20218;-70
2022/08/05 06:14:25;;;;;;;7.13;4.63;;;23.30;99.90;;;;;;5048527;28;20277;-70
2022/08/05 06:16:54;;;;;;;8.18;4.60;;;23.20;99.90;;;;;;5052942;28;20662;-70
2022/08/05 06:19:22;;;;;;;9.30;5.15;;;23.20;99.90;;;;;;5048313;28;20237;-70
2022/08/05 06:22:02;;;;;;;8.65;4.63;;;23.30;99.90;;;;;;5052780;28;20272;-69
2022/08/05 06:24:29;;;;;;;4.68;3.80;;;23.20;99.90;;;;;;5048926;28;20230;-70
2022/08/05 06:26:56;;;;;;;5.53;4.50;;;23.30;99.90;;;;;;5053163;28;20503;-72
2022/08/05 06:29:23;;;;;;;5.65;4.22;;;23.40;99.90;;;;;;5052354;28;20195;-69
2022/08/05 06:32:11;;;;;;;7.07;4.03;;;23.50;99.90;;;;;;5052420;28;20256;-69
2022/08/05 06:34:56;;;;;;;6.18;4.30;;;23.60;99.90;;;;;;5052399;28;20617;-69
2022/08/05 06:37:27;;;;;;;9.43;4.50;;;23.70;99.90;;;;;;5051654;28;20732;-69
2022/08/05 06:40:14;;;;;;;7.95;4.38;;;23.90;99.90;;;;;;5051568;28;20199;-69
2022/08/05 06:42:48;;;;;;;7.43;4.63;;;24.20;99.90;;;;;;5052537;28;20222;-69
2022/08/05 06:45:18;;;;;;;5.85;4.50;;;24.30;99.90;;;;;;5050231;28;20670;-69
2022/08/05 06:47:47;;;;;;;10.00;4.40;;;24.30;99.90;;;;;;5042454;28;20195;-69
2022/08/05 06:50:33;;;;;;;8.80;4.50;;;24.30;99.90;;;;;;5048259;28;20214;-70
2022/08/05 06:53:00;;;;;;;7.63;4.63;;;24.60;99.90;;;;;;5052030;28;20195;-70
2022/08/05 06:55:47;;;;;;;6.63;4.68;;;24.80;99.90;;;;;;5050521;28;20202;-70
2022/08/05 06:58:13;;;;;;;6.07;3.95;;;25.00;99.90;;;;;;5051721;28;20280;-70
2022/08/05 07:00:59;;;;;;;7.57;4.25;;;25.20;99.90;;;;;;5051496;28;20245;-70
2022/08/05 07:03:27;;;;;;;6.10;4.28;;;25.00;99.90;;;;;;5049540;28;20195;-70
2022/08/05 07:06:03;;;;;;;5.35;3.47;;;25.00;99.90;;;;;;5052089;28;20238;-70
2022/08/05 07:08:43;;;;;;;5.22;4.13;;;25.10;99.90;;;;;;5048424;28;20281;-70
2022/08/05 07:11:17;;;;;;;6.53;3.67;;;25.20;99.90;;;;;;5050049;28;20591;-70
2022/08/05 07:16:50;;;;;;;6.75;3.70;;;25.40;99.90;;;;;;5052208;28;20202;-70
2022/08/05 07:19:36;;;;;;;5.70;4.00;;;25.40;99.90;;;;;;5048210;28;20264;-70
2022/08/05 07:22:23;;;;;;;8.25;4.20;;;25.50;99.90;;;;;;5050969;28;20214;-70
2022/08/05 07:24:59;;;;;;;5.18;4.28;;;25.70;99.90;;;;;;5051881;28;20206;-70
2022/08/05 07:27:50;;;;;;;8.68;3.95;;;26.00;99.90;;;;;;5044881;28;20229;-70
2022/08/05 07:30:31;;;;;;;7.10;3.67;;;26.30;99.90;;;;;;5051186;28;20245;-70
2022/08/05 07:33:01;;;;;;;5.43;3.47;;;26.60;99.90;;;;;;5051399;28;20210;-70
2022/08/05 07:35:31;;;;;;;6.47;4.22;;;26.90;99.90;;;;;;5043124;28;20249;-70
2022/08/05 07:38:18;;;;;;;5.95;3.60;;;27.00;99.90;;;;;;5050952;28;20232;-70
2022/08/05 07:41:06;;;;;;;7.97;3.78;;;27.20;99.90;;;;;;5051052;28;20250;-70
2022/08/05 07:43:54;;;;;;;4.32;3.20;;;27.00;99.90;;;;;;5046618;28;20249;-70
2022/08/05 07:46:23;;;;;;;5.25;3.50;;;27.00;99.90;;;;;;5051111;28;20187;-69
2022/08/05 07:48:54;;;;;;;5.05;3.30;;;27.10;99.90;;;;;;5050936;28;20670;-70
2022/08/05 07:51:35;;;;;;;4.40;3.10;;;27.00;99.90;;;;;;5048186;28;20218;-70
2022/08/05 07:54:20;;;;;;;5.40;3.33;;;26.90;99.90;;;;;;5050626;28;20205;-70
2022/08/05 07:56:48;;;;;;;4.85;3.40;;;26.80;99.90;;;;;;5041478;28;20203;-70
2022/08/05 07:59:35;;;;;;;6.00;3.40;;;26.80;99.90;;;;;;5047638;28;20666;-70
2022/08/05 08:02:08;;;;;;;4.38;3.28;;;26.90;99.90;;;;;;5050265;28;20222;-69
2022/08/05 08:04:46;;;;;;;4.60;3.03;;;27.00;99.90;;;;;;5048459;28;20583;-70
2022/08/05 08:07:13;;;;;;;4.28;3.20;;;27.10;99.90;;;;;;5048770;28;20187;-70
2022/08/05 08:09:43;;;;;;;6.95;3.60;;;27.40;99.90;;;;;;5042015;28;20297;-70
2022/08/05 08:12:12;;;;;;;5.88;3.30;;;27.70;99.90;;;;;;5050095;28;20215;-70
2022/08/05 08:14:59;;;;;;;5.50;3.33;;;27.80;99.90;;;;;;5047384;28;20265;-70
2022/08/05 08:17:29;;;;;;;5.53;3.65;;;27.80;99.90;;;;;;5050263;28;20621;-70
2022/08/05 08:19:56;;;;;;;5.80;2.92;;;27.70;99.90;;;;;;5050226;28;20698;-70
2022/08/05 08:22:42;;;;;;;7.03;3.35;;;27.60;99.90;;;;;;5043377;28;20523;-70
2022/08/05 08:25:09;;;;;;;3.33;2.92;;;27.40;99.90;;;;;;5050414;28;20198;-70
2022/08/05 08:27:43;;;;;;;3.72;2.60;;;27.30;99.90;;;;;;5050625;28;20230;-70
2022/08/05 08:30:17;;;;;;;3.50;3.20;;;27.40;99.90;;;;;;5050066;28;20574;-70
2022/08/05 08:33:00;;;;;;;4.38;2.92;;;27.60;99.90;;;;;;5038589;28;20203;-70
2022/08/05 08:35:30;;;;;;;3.25;2.47;;;27.90;99.90;;;;;;5050328;28;20202;-70
2022/08/05 08:38:06;;;;;;;4.72;2.95;;;28.00;99.90;;;;;;5050177;28;20199;-70
2022/08/05 08:40:34;;;;;;;3.47;2.95;;;28.20;99.90;;;;;;5047360;28;20219;-70
2022/08/05 08:43:03;;;;;;;5.13;3.28;;;27.90;99.90;;;;;;5052287;28;20221;-71
2022/08/05 08:45:53;;;;;;;6.10;2.97;;;27.90;99.90;;;;;;5055253;28;20198;-71
2022/08/05 08:48:20;;;;;;;4.60;3.00;;;28.00;99.90;;;;;;5050155;28;20187;-70
2022/08/05 08:51:07;;;;;;;4.30;3.13;;;27.80;99.90;;;;;;5046467;28;20295;-70
2022/08/05 08:53:54;;;;;;;5.25;2.88;;;27.30;99.90;;;;;;5043551;28;20207;-71
2022/08/05 08:56:22;;;;;;;3.88;3.00;;;27.50;99.90;;;;;;5050416;28;20252;-71
2022/08/05 08:58:53;;;;;;;3.45;2.92;;;27.80;99.90;;;;;;5046406;28;20199;-70
2022/08/05 09:01:20;;;;;;;3.25;2.55;;;27.70;99.90;;;;;;5050231;28;20214;-70
2022/08/05 09:03:52;;;;;;;3.85;2.75;;;27.90;99.90;;;;;;5049352;28;20190;-70
2022/08/05 09:06:28;;;;;;;3.67;2.90;;;27.80;99.90;;;;;;5041999;28;20218;-70
2022/08/05 09:09:00;;;;;;;4.72;3.20;;;28.00;99.90;;;;;;5046082;28;20686;-70
2022/08/05 09:11:27;;;;;;;3.15;2.72;;;28.10;99.90;;;;;;5049780;28;20677;-71
2022/08/05 09:14:14;;;;;;;3.35;3.05;;;28.40;99.90;;;;;;5049512;28;20218;-71
2022/08/05 09:17:03;;;;;;;4.38;2.70;;;28.70;99.90;;;;;;5048099;28;20666;-70
2022/08/05 09:19:34;;;;;;;4.35;2.60;;;28.60;99.90;;;;;;5049959;28;20186;-69
2022/08/05 09:22:20;;;;;;;3.25;2.95;;;28.50;99.90;;;;;;5047624;28;20222;-70
2022/08/05 09:24:59;;;;;;;2.83;2.55;;;28.00;99.90;;;;;;5050393;28;20194;-70
2022/08/05 09:27:34;;;;;;;2.70;2.50;;;27.70;99.90;;;;;;5036377;28;20569;-70
2022/08/05 09:30:21;;;;;;;4.55;2.50;;;27.50;99.90;;;;;;5041831;28;20268;-70
2022/08/05 09:32:49;;;;;;;3.58;2.70;;;27.20;99.90;;;;;;5049302;28;20206;-70
2022/08/05 09:35:18;;;;;;;4.05;2.45;;;26.80;99.90;;;;;;5049006;28;20340;-70
2022/08/05 09:37:54;;;;;;;3.17;2.88;;;26.80;99.90;;;;;;5049527;28;20285;-70
2022/08/05 09:40:42;;;;;;;2.72;2.45;;;26.70;99.90;;;;;;5047015;28;20226;-70
2022/08/05 09:43:27;;;;;;;5.45;2.55;;;27.00;99.90;;;;;;5049676;28;20221;-69
2022/08/05 09:46:31;;;;;;;3.45;2.80;;;27.40;99.90;;;;;;5050049;28;20274;-69
2022/08/05 09:49:06;;;;;;;3.15;2.67;;;27.60;99.90;;;;;;5049413;28;20199;-70
2022/08/05 09:51:45;;;;;;;3.85;2.47;;;27.80;99.90;;;;;;5043785;28;20301;-70
2022/08/05 09:54:16;;;;;;;3.42;2.80;;;27.70;99.90;;;;;;5049644;28;20195;-70
2022/08/05 09:56:55;;;;;;;5.07;2.50;;;27.90;99.90;;;;;;5044064;28;20202;-70
2022/08/05 09:59:26;;;;;;;5.97;2.92;;;27.90;99.90;;;;;;5044298;28;20577;-70
2022/08/05 10:01:53;;;;;;;3.92;2.78;;;28.00;99.90;;;;;;5049071;28;20245;-70
2022/08/05 10:04:34;;;;;;;5.00;3.00;;;27.90;99.90;;;;;;5049191;28;20278;-70
2022/08/05 10:07:01;;;;;;;3.47;2.80;;;28.00;99.90;;;;;;5036558;28;20256;-70
2022/08/05 10:09:55;;;;;;;3.22;2.85;;;28.10;99.90;;;;;;5047023;28;20195;-70
2022/08/05 10:12:49;;;;;;;3.20;2.75;;;27.80;99.90;;;;;;5047018;28;20207;-70
2022/08/05 10:15:28;;;;;;;3.67;2.75;;;28.00;99.90;;;;;;5036304;28;20689;-70
2022/08/05 10:18:21;;;;;;;3.53;2.90;;;28.20;99.90;;;;;;5052995;28;20289;-70
2022/08/05 10:20:50;;;;;;;4.70;3.15;;;28.60;99.90;;;;;;5050484;28;20223;-70
2022/08/05 10:23:24;;;;;;;6.32;3.00;;;28.10;99.90;;;;;;5052804;28;20284;-70
2022/08/05 10:26:11;;;;;;;3.60;3.03;;;28.00;99.90;;;;;;5051254;28;20199;-70
2022/08/05 10:28:42;;;;;;;5.88;3.50;;;27.90;99.90;;;;;;5049852;28;20226;-69
2022/08/05 10:31:13;;;;;;;5.72;3.88;;;28.00;99.90;;;;;;5051806;28;20217;-70
2022/08/05 10:34:00;;;;;;;4.65;3.30;;;28.20;99.90;;;;;;5051188;28;20194;-70
2022/08/05 10:36:27;;;;;;;4.47;3.45;;;28.50;99.90;;;;;;5052563;28;20199;-71
2022/08/05 10:39:02;;;;;;;4.35;3.35;;;28.30;99.90;;;;;;5052333;28;20199;-70
2022/08/05 10:41:53;;;;;;;4.28;3.13;;;27.80;99.90;;;;;;5049687;28;20258;-70
2022/08/05 10:44:28;;;;;;;4.05;3.17;;;27.80;99.90;;;;;;5052420;28;20241;-70
2022/08/05 10:46:55;;;;;;;4.90;3.55;;;28.00;99.90;;;;;;5052341;28;20195;-70
2022/08/05 10:49:24;;;;;;;4.32;3.17;;;27.90;99.90;;;;;;5047346;28;20199;-71
2022/08/05 10:51:59;;;;;;;5.75;3.40;;;27.70;99.90;;;;;;5042039;28;20214;-70
2022/08/05 10:55:02;;;;;;;6.00;3.30;;;27.30;99.90;;;;;;5052281;28;20588;-69
2022/08/05 10:57:29;;;;;;;4.47;3.20;;;27.10;99.90;;;;;;5043259;28;20651;-69
2022/08/05 11:00:23;;;;;;;4.47;3.50;;;27.10;99.90;;;;;;5035276;28;20194;-70
2022/08/05 11:03:04;;;;;;;6.07;3.70;;;27.10;99.90;;;;;;5050784;28;20218;-70
2022/08/05 11:06:09;;;;;;;4.47;3.78;;;27.50;99.90;;;;;;5045947;28;20198;-69
2022/08/05 11:09:11;;;;;;;4.32;3.30;;;27.30;99.90;;;;;;5047804;28;20639;-70
2022/08/05 11:11:43;;;;;;;4.13;3.50;;;27.50;99.90;;;;;;5048918;28;20239;-70
2022/08/05 11:14:25;;;;;;;4.10;3.22;;;27.60;99.90;;;;;;5039477;28;20277;-70
2022/08/05 11:17:27;;;;;;;5.00;3.58;;;27.50;99.90;;;;;;5048588;28;20207;-69
2022/08/05 11:20:40;;;;;;;7.28;3.50;;;27.80;99.90;;;;;;5049741;28;20194;-70
2022/08/05 11:23:42;;;;;;;4.22;3.50;;;28.20;99.90;;;;;;5051997;28;20375;-70
2022/08/05 11:26:29;;;;;;;5.47;3.80;;;28.70;99.90;;;;;;5048787;28;20199;-70
2022/08/05 11:29:04;;;;;;;7.32;3.45;;;29.10;99.90;;;;;;5051489;28;20649;-71
2022/08/05 11:31:41;;;;;;;4.45;3.25;;;29.40;99.90;;;;;;5050954;28;20706;-70
2022/08/05 11:34:40;;;;;;;4.88;3.15;;;29.50;99.90;;;;;;5050541;28;20199;-70
2022/08/05 11:37:41;;;;;;;4.05;3.65;;;30.00;99.90;;;;;;5051055;28;20187;-70
2022/08/05 11:41:00;;;;;;;3.58;3.28;;;30.30;99.90;;;;;;5048838;28;20277;-70
2022/08/05 11:43:54;;;;;;;4.90;3.63;;;30.60;99.90;;;;;;5048059;28;20223;-69
2022/08/05 11:46:51;;;;;;;3.55;3.25;;;30.20;99.90;;;;;;5050919;28;20203;-70
2022/08/05 11:49:38;;;;;;;5.22;3.65;;;30.60;99.90;;;;;;5051086;28;20650;-70
2022/08/05 11:52:09;;;;;;;5.35;3.70;;;30.90;99.90;;;;;;5051230;28;20295;-70
2022/08/05 11:54:38;;;;;;;3.63;3.25;;;31.10;99.90;;;;;;5049188;28;20191;-70
2022/08/05 11:57:07;;;;;;;4.70;4.13;;;31.40;99.90;;;;;;5051418;28;20285;-70
2022/08/05 11:59:51;;;;;;;4.90;3.70;;;31.50;99.90;;;;;;5049506;28;20199;-70
2022/08/05 12:02:24;;;;;;;4.05;3.60;;;31.40;99.90;;;;;;5040528;28;20717;-70
2022/08/05 12:04:59;;;;;;;4.10;3.70;;;31.20;99.90;;;;;;5050460;28;20186;-70
2022/08/05 12:07:33;;;;;;;6.88;3.95;;;31.20;99.90;;;;;;5051130;28;20191;-70
2022/08/05 12:10:21;;;;;;;88.88;9.00;;;30.90;99.90;;;;;;5046112;28;20627;-70
2022/08/05 12:12:51;;;;;;;18.27;4.28;;;30.70;99.90;;;;;;5049573;28;20226;-70
2022/08/05 12:15:25;;;;;;;5.75;3.60;;;30.50;99.90;;;;;;5050333;28;20252;-70
2022/08/05 12:18:05;;;;;;;3.95;3.50;;;30.20;99.90;;;;;;5040995;28;20246;-70
2022/08/05 12:20:37;;;;;;;5.32;3.63;;;29.90;99.90;;;;;;5048846;28;20302;-70
2022/08/05 12:23:11;;;;;;;4.95;3.92;;;29.70;99.90;;;;;;5050694;28;20298;-70
2022/08/05 12:25:52;;;;;;;6.38;3.97;;;29.50;99.90;;;;;;5048404;28;20595;-70
2022/08/05 12:28:38;;;;;;;4.53;4.05;;;29.70;99.90;;;;;;5050784;28;20278;-71
2022/08/05 12:31:04;;;;;;;4.88;4.22;;;29.90;99.90;;;;;;5050430;28;20729;-70
2022/08/05 12:33:32;;;;;;;5.60;3.92;;;30.50;99.90;;;;;;5046862;28;20222;-70
2022/08/05 12:36:06;;;;;;;5.53;4.10;;;30.40;99.90;;;;;;5050551;28;20198;-70
2022/08/05 12:38:38;;;;;;;6.40;4.63;;;29.80;99.90;;;;;;5044806;28;20203;-68
2022/08/05 12:41:09;;;;;;;5.40;4.28;;;29.60;99.90;;;;;;5049706;28;20215;-70
2022/08/05 12:43:53;;;;;;;4.47;4.07;;;29.50;99.90;;;;;;5043623;28;20224;-70
2022/08/05 12:46:24;;;;;;;5.32;4.50;;;29.90;99.90;;;;;;5050474;28;20191;-70
2022/08/05 12:48:59;;;;;;;5.47;4.82;;;29.70;99.90;;;;;;5045194;28;20208;-70
2022/08/05 12:51:41;;;;;;;5.60;4.18;;;29.20;99.90;;;;;;5050145;28;20242;-70
2022/08/05 12:54:30;;;;;;;5.55;4.80;;;29.10;99.90;;;;;;5060581;28;20249;-70
2022/08/05 12:57:01;;;;;;;6.97;4.90;;;28.70;99.90;;;;;;5049669;28;20230;-70
2022/08/05 12:59:30;;;;;;;5.75;4.60;;;28.50;99.90;;;;;;5050091;28;20577;-70
2022/08/05 13:02:25;;;;;;;6.40;5.05;;;28.30;99.90;;;;;;5049217;28;20277;-71
2022/08/05 13:04:55;;;;;;;8.82;5.22;;;27.80;99.90;;;;;;5049710;28;20260;-70
2022/08/05 13:07:25;;;;;;;5.63;4.70;;;27.70;99.90;;;;;;5050001;28;20264;-70
2022/08/05 13:10:14;;;;;;;5.40;4.88;;;27.80;99.90;;;;;;5048812;28;20573;-70
2022/08/05 13:12:46;;;;;;;7.88;4.88;;;27.80;99.90;;;;;;5049465;28;20199;-70
2022/08/05 13:15:30;;;;;;;5.30;4.68;;;28.10;99.90;;;;;;5050177;28;20428;-70
2022/08/05 13:18:17;;;;;;;5.18;4.60;;;28.00;99.90;;;;;;5047287;28;20198;-70
2022/08/05 13:20:46;;;;;;;5.93;4.55;;;27.80;99.90;;;;;;5044111;28;20324;-70
2022/08/05 13:23:15;;;;;;;5.07;4.57;;;27.60;99.90;;;;;;5049533;28;20223;-70
2022/08/05 13:25:47;;;;;;;5.03;4.53;;;27.50;99.90;;;;;;5049739;28;20270;-71
2022/08/05 13:28:24;;;;;;;6.70;5.50;;;27.10;99.90;;;;;;5037928;28;20641;-69
2022/08/05 13:30:51;;;;;;;10.38;6.97;;;26.60;99.90;;;;;;5049583;28;20215;-69
2022/08/05 13:33:22;;;;;;;8.73;7.43;;;25.80;99.90;;;;;;5050001;28;20203;-69
2022/08/05 13:36:09;;;;;;;10.68;7.97;;;24.90;99.90;;;;;;5047252;28;20241;-70
2022/08/05 13:38:36;;;;;;;10.88;8.18;;;23.90;99.90;;;;;;5047242;28;20202;-69